createdAt,value
2018-03-21T00:00:04.254Z,99.90
2018-03-21T00:01:08.273Z,99.90
2018-03-21T00:02:11.618Z,99.90
2018-03-21T00:03:14.855Z,99.90
2018-03-21T00:04:18.829Z,99.90
2018-03-21T00:05:22.820Z,99.90
2018-03-21T00:06:26.055Z,99.90
2018-03-21T00:07:29.299Z,99.90
2018-03-21T00:08:33.297Z,99.90
2018-03-21T00:09:37.303Z,99.90
2018-03-21T00:10:41.295Z,99.90
2018-03-21T00:11:45.884Z,99.90
2018-03-21T00:12:49.115Z,99.90
2018-03-21T00:13:52.357Z,99.90
2018-03-21T00:14:55.678Z,99.90
2018-03-21T00:15:58.954Z,99.90
2018-03-21T00:17:02.196Z,99.90
2018-03-21T00:18:05.440Z,99.90
2018-03-21T00:19:08.719Z,99.90
2018-03-21T00:20:11.899Z,99.90
2018-03-21T00:21:15.109Z,99.90
2018-03-21T00:22:18.347Z,99.90
2018-03-21T00:23:22.347Z,99.90
2018-03-21T00:24:26.340Z,99.90
2018-03-21T00:25:29.601Z,99.90
2018-03-21T00:26:32.844Z,99.90
2018-03-21T00:27:36.065Z,99.90
2018-03-21T00:28:39.302Z,99.90
2018-03-21T00:29:42.530Z,99.90
2018-03-21T00:30:45.732Z,99.90
2018-03-21T00:31:49.774Z,99.90
2018-03-21T00:32:53.049Z,99.90
2018-03-21T00:33:56.309Z,99.90
2018-03-21T00:35:00.298Z,99.90
2018-03-21T00:36:03.509Z,99.90
2018-03-21T00:37:06.777Z,99.90
2018-03-21T00:38:10.812Z,99.90
2018-03-21T00:39:14.088Z,99.90
2018-03-21T00:40:17.409Z,99.90
2018-03-21T00:41:20.609Z,99.90
2018-03-21T00:42:23.871Z,99.90
2018-03-21T00:43:27.090Z,99.90
2018-03-21T00:44:31.099Z,99.90
2018-03-21T00:45:35.065Z,99.90
2018-03-21T00:46:39.806Z,99.90
2018-03-21T00:47:43.941Z,99.90
2018-03-21T00:48:47.139Z,99.90
2018-03-21T00:49:50.354Z,99.90
2018-03-21T00:50:53.634Z,99.90
2018-03-21T00:51:56.862Z,99.90
2018-03-21T00:53:00.091Z,99.90
2018-03-21T00:54:03.297Z,99.90
2018-03-21T00:55:06.508Z,99.90
2018-03-21T00:56:09.733Z,99.90
2018-03-21T00:57:13.008Z,99.90
2018-03-21T00:58:16.308Z,99.90
2018-03-21T00:59:19.515Z,99.90
2018-03-21T01:00:23.509Z,99.90
2018-03-21T01:01:26.733Z,99.90
2018-03-21T01:02:30.059Z,99.90
2018-03-21T01:03:33.241Z,99.90
2018-03-21T01:04:36.567Z,99.90
2018-03-21T01:05:40.556Z,99.90
2018-03-21T01:06:44.552Z,99.90
2018-03-21T01:07:47.774Z,99.90
2018-03-21T01:08:51.047Z,99.90
2018-03-21T01:09:55.071Z,99.90
2018-03-21T01:10:58.272Z,99.90
2018-03-21T01:12:01.505Z,99.90
2018-03-21T01:13:04.717Z,99.90
2018-03-21T01:14:07.954Z,99.90
2018-03-21T01:15:12.002Z,99.90
2018-03-21T01:16:15.258Z,99.90
2018-03-21T01:17:19.229Z,99.90
2018-03-21T01:18:23.253Z,99.90
2018-03-21T01:19:27.240Z,99.90
2018-03-21T01:20:31.226Z,99.90
2018-03-21T01:21:34.429Z,99.90
2018-03-21T01:22:38.449Z,99.90
2018-03-21T01:23:41.682Z,99.90
2018-03-21T01:24:44.905Z,99.90
2018-03-21T01:25:48.157Z,99.90
2018-03-21T01:26:51.454Z,99.90
2018-03-21T01:27:55.443Z,99.90
2018-03-21T01:28:58.651Z,99.90
2018-03-21T01:30:02.644Z,99.90
2018-03-21T01:31:06.626Z,99.90
2018-03-21T01:32:09.850Z,99.90
2018-03-21T01:33:13.091Z,99.90
2018-03-21T01:34:16.304Z,99.90
2018-03-21T01:35:19.526Z,99.90
2018-03-21T01:36:22.865Z,99.90
2018-03-21T01:37:26.853Z,99.90
2018-03-21T01:38:30.896Z,99.90
2018-03-21T01:39:34.110Z,99.90
2018-03-21T01:40:37.333Z,99.90
2018-03-21T01:41:41.325Z,99.90
2018-03-21T01:42:45.445Z,99.90
2018-03-21T01:43:48.732Z,99.90
2018-03-21T01:44:52.724Z,99.90
2018-03-21T01:45:56.731Z,99.90
2018-03-21T01:47:00.707Z,99.90
2018-03-21T01:48:03.925Z,99.90
2018-03-21T01:49:07.155Z,99.90
2018-03-21T01:50:10.376Z,99.90
2018-03-21T01:51:14.363Z,99.90
2018-03-21T01:52:17.584Z,99.90
2018-03-21T01:53:20.843Z,99.90
2018-03-21T01:54:24.071Z,99.90
2018-03-21T01:55:27.288Z,99.90
2018-03-21T01:56:30.520Z,99.90
2018-03-21T01:58:43.461Z,99.90
2018-03-21T01:59:46.651Z,99.90
2018-03-21T02:00:49.873Z,99.90
2018-03-21T02:01:53.102Z,99.90
2018-03-21T02:02:56.353Z,99.90
2018-03-21T02:03:59.578Z,99.90
2018-03-21T02:05:02.784Z,99.90
2018-03-21T02:06:06.782Z,99.90
2018-03-21T02:07:10.789Z,99.90
2018-03-21T02:08:14.801Z,99.90
2018-03-21T02:09:18.803Z,99.90
2018-03-21T02:10:22.801Z,99.90
2018-03-21T02:11:26.869Z,99.90
2018-03-21T02:12:30.071Z,99.90
2018-03-21T02:13:34.076Z,99.90
2018-03-21T02:14:38.064Z,99.90
2018-03-21T02:15:41.329Z,99.90
2018-03-21T02:16:44.544Z,99.90
2018-03-21T02:17:48.524Z,99.90
2018-03-21T02:18:51.749Z,99.90
2018-03-21T02:19:54.962Z,99.90
2018-03-21T02:20:58.207Z,99.90
2018-03-21T02:22:02.300Z,99.90
2018-03-21T02:23:05.504Z,99.90
2018-03-21T02:24:08.732Z,99.90
2018-03-21T02:25:11.962Z,99.90
2018-03-21T02:26:15.220Z,99.90
2018-03-21T02:27:18.418Z,99.90
2018-03-21T02:28:22.425Z,99.90
2018-03-21T02:29:26.794Z,99.90
2018-03-21T02:30:30.222Z,99.90
2018-03-21T02:31:34.231Z,99.90
2018-03-21T02:32:37.471Z,99.90
2018-03-21T02:33:40.750Z,99.90
2018-03-21T02:34:44.114Z,99.90
2018-03-21T02:35:47.484Z,99.90
2018-03-21T02:36:50.725Z,99.90
2018-03-21T02:37:54.800Z,99.90
2018-03-21T02:38:58.184Z,99.90
2018-03-21T02:40:01.465Z,99.90
2018-03-21T02:41:05.546Z,99.90
2018-03-21T02:42:08.868Z,99.90
2018-03-21T02:43:12.158Z,99.90
2018-03-21T02:44:15.522Z,99.90
2018-03-21T02:45:19.591Z,99.90
2018-03-21T02:46:22.814Z,99.90
2018-03-21T02:47:26.105Z,99.90
2018-03-21T02:48:29.415Z,99.90
2018-03-21T02:49:32.700Z,99.90
2018-03-21T02:50:35.964Z,99.90
2018-03-21T02:51:39.265Z,99.90
2018-03-21T02:52:42.520Z,99.90
2018-03-21T02:53:46.594Z,99.90
2018-03-21T02:54:49.935Z,99.90
2018-03-21T02:55:53.274Z,99.90
2018-03-21T02:56:57.732Z,99.90
2018-03-21T02:58:00.971Z,99.90
2018-03-21T02:59:04.966Z,99.90
2018-03-21T03:00:08.982Z,99.90
2018-03-21T03:01:12.418Z,99.90
2018-03-21T03:02:16.020Z,99.90
2018-03-21T03:03:19.248Z,99.90
2018-03-21T03:04:22.516Z,99.90
2018-03-21T03:05:25.729Z,99.90
2018-03-21T03:06:28.997Z,99.90
2018-03-21T03:07:32.370Z,99.90
2018-03-21T03:08:35.621Z,99.90
2018-03-21T03:09:38.842Z,99.90
2018-03-21T03:10:42.114Z,99.90
2018-03-21T03:11:46.130Z,99.90
2018-03-21T03:12:49.419Z,99.90
2018-03-21T03:13:52.652Z,99.90
2018-03-21T03:14:55.985Z,99.90
2018-03-21T03:15:59.592Z,99.90
2018-03-21T03:17:02.801Z,99.90
2018-03-21T03:18:05.990Z,99.90
2018-03-21T03:19:09.388Z,99.90
2018-03-21T03:20:12.732Z,99.90
2018-03-21T03:21:16.575Z,99.90
2018-03-21T03:22:20.590Z,99.90
2018-03-21T03:23:24.573Z,99.90
2018-03-21T03:24:29.258Z,99.90
2018-03-21T03:25:32.589Z,99.90
2018-03-21T03:26:35.804Z,99.90
2018-03-21T03:27:39.028Z,99.90
2018-03-21T03:28:42.261Z,99.90
2018-03-21T03:29:45.498Z,99.90
2018-03-21T03:30:48.779Z,99.90
2018-03-21T03:31:52.070Z,99.90
2018-03-21T03:32:55.253Z,99.90
2018-03-21T03:33:58.484Z,99.90
2018-03-21T03:35:01.792Z,99.90
2018-03-21T03:36:05.057Z,99.90
2018-03-21T03:37:08.277Z,99.90
2018-03-21T03:38:11.493Z,99.90
2018-03-21T03:39:15.470Z,99.90
2018-03-21T03:40:18.710Z,99.90
2018-03-21T03:41:21.958Z,99.90
2018-03-21T03:42:26.498Z,99.90
2018-03-21T03:43:29.942Z,99.90
2018-03-21T03:44:33.197Z,99.90
2018-03-21T03:45:36.452Z,99.90
2018-03-21T03:46:39.754Z,99.90
2018-03-21T03:47:43.042Z,99.90
2018-03-21T03:48:46.279Z,99.90
2018-03-21T03:49:50.399Z,99.90
2018-03-21T03:50:54.456Z,99.90
2018-03-21T03:51:57.653Z,99.90
2018-03-21T03:53:01.630Z,99.90
2018-03-21T03:54:04.855Z,99.90
2018-03-21T03:55:09.048Z,99.90
2018-03-21T03:56:13.043Z,99.90
2018-03-21T03:57:17.321Z,99.90
2018-03-21T03:58:20.518Z,99.90
2018-03-21T03:59:23.724Z,99.90
2018-03-21T04:00:27.718Z,99.90
2018-03-21T04:01:31.888Z,99.90
2018-03-21T04:02:35.083Z,99.90
2018-03-21T04:03:38.314Z,99.90
2018-03-21T04:04:41.557Z,99.90
2018-03-21T04:05:44.801Z,99.90
2018-03-21T04:06:48.002Z,99.90
2018-03-21T04:07:51.256Z,99.90
2018-03-21T04:08:54.511Z,99.90
2018-03-21T04:09:58.509Z,99.90
2018-03-21T04:11:01.767Z,99.90
2018-03-21T04:12:04.966Z,99.90
2018-03-21T04:13:08.965Z,99.90
2018-03-21T04:14:12.931Z,99.90
2018-03-21T04:15:16.156Z,99.90
2018-03-21T04:16:19.390Z,99.90
2018-03-21T04:17:22.603Z,99.90
2018-03-21T04:18:26.608Z,99.90
2018-03-21T04:19:29.800Z,99.90
2018-03-21T04:20:33.779Z,99.90
2018-03-21T04:21:37.761Z,99.90
2018-03-21T04:22:41.021Z,99.90
2018-03-21T04:23:44.258Z,99.90
2018-03-21T04:24:48.260Z,99.90
2018-03-21T04:25:52.245Z,99.90
2018-03-21T04:26:55.465Z,99.90
2018-03-21T04:27:58.713Z,99.90
2018-03-21T04:29:01.971Z,99.90
2018-03-21T04:30:05.153Z,99.90
2018-03-21T04:31:08.476Z,99.90
2018-03-21T04:32:12.528Z,99.90
2018-03-21T04:33:15.772Z,99.90
2018-03-21T04:34:19.767Z,99.90
2018-03-21T04:35:23.780Z,99.90
2018-03-21T04:36:27.014Z,99.90
2018-03-21T04:37:31.006Z,99.90
2018-03-21T04:38:34.223Z,99.90
2018-03-21T04:39:38.228Z,99.90
2018-03-21T04:40:42.296Z,99.90
2018-03-21T04:41:46.092Z,99.90
2018-03-21T04:42:50.135Z,99.90
2018-03-21T04:43:54.185Z,99.90
2018-03-21T04:44:57.413Z,99.90
2018-03-21T04:46:01.440Z,99.90
2018-03-21T04:47:04.671Z,99.90
2018-03-21T04:48:07.888Z,99.90
2018-03-21T04:49:11.130Z,99.90
2018-03-21T04:50:14.426Z,99.90
2018-03-21T04:51:17.763Z,99.90
2018-03-21T04:52:21.006Z,99.90
2018-03-21T04:53:25.012Z,99.90
2018-03-21T04:54:29.017Z,99.90
2018-03-21T04:55:33.101Z,99.90
2018-03-21T04:56:36.296Z,99.90
2018-03-21T04:57:40.284Z,99.90
2018-03-21T04:58:43.505Z,99.90
2018-03-21T04:59:46.727Z,99.90
2018-03-21T05:00:49.932Z,99.90
2018-03-21T05:01:54.049Z,99.90
2018-03-21T05:02:57.217Z,99.90
2018-03-21T05:04:00.747Z,99.90
2018-03-21T05:05:03.976Z,99.90
2018-03-21T05:06:07.210Z,99.90
2018-03-21T05:07:11.938Z,99.90
2018-03-21T05:08:15.219Z,99.90
2018-03-21T05:09:18.510Z,99.90
2018-03-21T05:10:22.524Z,99.90
2018-03-21T05:11:26.513Z,99.90
2018-03-21T05:12:30.511Z,99.90
2018-03-21T05:13:34.511Z,99.90
2018-03-21T05:14:38.506Z,99.90
2018-03-21T05:15:41.865Z,99.90
2018-03-21T05:16:45.073Z,99.90
2018-03-21T05:17:48.326Z,99.90
2018-03-21T05:18:51.512Z,99.90
2018-03-21T05:19:54.747Z,99.90
2018-03-21T05:20:57.993Z,99.90
2018-03-21T05:22:01.350Z,99.90
2018-03-21T05:23:04.726Z,99.90
2018-03-21T05:24:07.960Z,99.90
2018-03-21T05:25:11.176Z,99.90
2018-03-21T05:26:14.406Z,99.90
2018-03-21T05:27:17.656Z,99.90
2018-03-21T05:28:20.869Z,99.90
2018-03-21T05:29:24.116Z,99.90
2018-03-21T05:30:27.378Z,99.90
2018-03-21T05:31:31.349Z,99.90
2018-03-21T05:32:34.581Z,99.90
2018-03-21T05:33:37.850Z,99.90
2018-03-21T05:34:41.133Z,99.90
2018-03-21T05:35:44.427Z,99.90
2018-03-21T05:36:47.680Z,99.90
2018-03-21T05:37:51.686Z,99.90
2018-03-21T05:38:55.661Z,99.90
2018-03-21T05:39:58.900Z,99.90
2018-03-21T05:41:02.128Z,99.90
2018-03-21T05:42:05.357Z,99.90
2018-03-21T05:43:08.587Z,99.90
2018-03-21T05:44:11.827Z,99.90
2018-03-21T05:45:15.056Z,99.90
2018-03-21T05:46:19.069Z,99.90
2018-03-21T05:47:22.337Z,99.90
2018-03-21T05:48:25.532Z,99.90
2018-03-21T05:49:29.760Z,99.90
2018-03-21T05:50:32.978Z,99.90
2018-03-21T05:51:36.255Z,99.90
2018-03-21T05:52:39.476Z,99.90
2018-03-21T05:53:42.721Z,99.90
2018-03-21T05:54:45.967Z,99.90
2018-03-21T05:55:50.005Z,99.90
2018-03-21T05:56:53.253Z,99.90
2018-03-21T05:57:57.262Z,99.90
2018-03-21T05:59:00.622Z,99.90
2018-03-21T06:00:03.871Z,99.90
2018-03-21T06:01:07.111Z,99.90
2018-03-21T06:02:10.351Z,99.90
2018-03-21T06:03:13.585Z,99.90
2018-03-21T06:04:16.816Z,99.90
2018-03-21T06:05:20.033Z,99.90
2018-03-21T06:06:24.095Z,99.90
2018-03-21T06:07:28.221Z,99.90
2018-03-21T06:08:31.491Z,99.90
2018-03-21T06:09:34.733Z,99.90
2018-03-21T06:10:37.975Z,99.90
2018-03-21T06:11:41.185Z,99.90
2018-03-21T06:12:44.488Z,99.90
2018-03-21T06:13:47.708Z,99.90
2018-03-21T06:14:50.945Z,99.90
2018-03-21T06:15:54.182Z,99.90
2018-03-21T06:16:57.405Z,99.90
2018-03-21T06:18:01.405Z,99.90
2018-03-21T06:19:05.402Z,99.90
2018-03-21T06:20:09.385Z,99.90
2018-03-21T06:21:13.383Z,99.90
2018-03-21T06:22:17.382Z,99.90
2018-03-21T06:23:20.609Z,99.90
2018-03-21T06:24:23.935Z,99.90
2018-03-21T06:25:27.172Z,99.90
2018-03-21T06:26:30.396Z,99.90
2018-03-21T06:27:33.640Z,99.90
2018-03-21T06:28:36.892Z,99.90
2018-03-21T06:29:40.884Z,99.90
2018-03-21T06:30:44.903Z,99.90
2018-03-21T06:31:48.128Z,99.90
2018-03-21T06:32:51.360Z,99.90
2018-03-21T06:33:55.384Z,99.90
2018-03-21T06:34:58.639Z,99.90
2018-03-21T06:36:01.841Z,99.70
2018-03-21T06:37:05.061Z,99.80
2018-03-21T06:38:08.346Z,99.90
2018-03-21T06:39:11.565Z,99.90
2018-03-21T06:40:15.578Z,99.90
2018-03-21T06:41:19.598Z,99.90
2018-03-21T06:42:22.827Z,99.90
2018-03-21T06:43:26.035Z,99.90
2018-03-21T06:44:30.077Z,99.90
2018-03-21T06:45:33.288Z,99.90
2018-03-21T06:46:38.250Z,99.70
2018-03-21T06:47:42.267Z,99.60
2018-03-21T06:48:45.517Z,99.60
2018-03-21T06:49:48.788Z,99.60
2018-03-21T06:50:52.026Z,99.40
2018-03-21T06:51:55.257Z,99.50
2018-03-21T06:52:58.477Z,99.30
2018-03-21T06:54:02.472Z,98.80
2018-03-21T06:55:06.460Z,98.90
2018-03-21T06:56:10.480Z,99.00
2018-03-21T06:57:14.504Z,98.80
2018-03-21T06:58:17.717Z,98.80
2018-03-21T06:59:20.945Z,98.50
2018-03-21T07:00:24.181Z,98.40
2018-03-21T07:01:27.436Z,98.30
2018-03-21T07:02:30.683Z,98.30
2018-03-21T07:03:34.660Z,98.10
2018-03-21T07:04:38.693Z,97.50
2018-03-21T07:05:42.757Z,97.30
2018-03-21T07:06:45.996Z,97.20
2018-03-21T07:07:49.276Z,97.30
2018-03-21T07:08:52.505Z,97.20
2018-03-21T07:09:55.723Z,97.20
2018-03-21T07:10:59.755Z,97.60
2018-03-21T07:12:02.976Z,97.30
2018-03-21T07:13:06.198Z,97.20
2018-03-21T07:14:21.410Z,97.20
2018-03-21T07:15:36.634Z,97.20
2018-03-21T07:16:48.304Z,97.20
2018-03-21T07:17:52.449Z,97.40
2018-03-21T07:18:55.721Z,97.40
2018-03-21T07:19:58.970Z,97.30
2018-03-21T07:21:02.178Z,97.30
2018-03-21T07:22:05.425Z,97.10
2018-03-21T07:23:09.455Z,96.90
2018-03-21T07:24:12.654Z,96.90
2018-03-21T07:25:15.860Z,96.80
2018-03-21T07:26:19.209Z,96.60
2018-03-21T07:27:22.438Z,96.70
2018-03-21T07:28:25.684Z,96.40
2018-03-21T07:29:28.986Z,96.20
2018-03-21T07:30:32.187Z,96.10
2018-03-21T07:31:35.425Z,96.00
2018-03-21T07:32:38.630Z,95.60
2018-03-21T07:33:41.881Z,95.70
2018-03-21T07:34:45.121Z,95.70
2018-03-21T07:35:48.448Z,95.60
2018-03-21T07:36:51.655Z,95.50
2018-03-21T07:37:54.870Z,95.60
2018-03-21T07:38:58.161Z,95.60
2018-03-21T07:40:01.515Z,95.80
2018-03-21T07:41:04.714Z,96.00
2018-03-21T07:42:08.057Z,95.70
2018-03-21T07:43:12.066Z,95.70
2018-03-21T07:44:15.378Z,95.70
2018-03-21T07:45:19.355Z,95.40
2018-03-21T07:46:22.579Z,95.40
2018-03-21T07:47:25.856Z,95.30
2018-03-21T07:48:29.106Z,95.50
2018-03-21T07:49:32.338Z,95.60
2018-03-21T07:50:35.585Z,95.70
2018-03-21T07:51:38.806Z,95.80
2018-03-21T07:52:42.038Z,95.60
2018-03-21T07:53:45.259Z,95.20
2018-03-21T07:54:48.485Z,95.50
2018-03-21T07:55:51.698Z,95.40
2018-03-21T07:56:54.918Z,95.40
2018-03-21T07:57:58.141Z,95.10
2018-03-21T07:59:01.347Z,95.30
2018-03-21T08:00:05.315Z,94.90
2018-03-21T08:01:08.535Z,94.90
2018-03-21T08:02:12.596Z,95.50
2018-03-21T08:03:16.644Z,95.40
2018-03-21T08:04:20.633Z,95.30
2018-03-21T08:05:24.602Z,95.40
2018-03-21T08:06:27.831Z,95.20
2018-03-21T08:07:31.832Z,94.80
2018-03-21T08:08:35.828Z,94.40
2018-03-21T08:09:39.839Z,94.60
2018-03-21T08:10:43.071Z,94.60
2018-03-21T08:11:46.283Z,95.00
2018-03-21T08:12:49.524Z,95.30
2018-03-21T08:13:52.819Z,95.30
2018-03-21T08:14:56.009Z,95.40
2018-03-21T08:15:59.228Z,95.90
2018-03-21T08:17:03.210Z,96.10
2018-03-21T08:18:06.427Z,96.10
2018-03-21T08:19:09.713Z,96.00
2018-03-21T08:20:12.972Z,95.40
2018-03-21T08:21:20.212Z,94.60
2018-03-21T08:22:23.434Z,94.60
2018-03-21T08:23:27.437Z,94.30
2018-03-21T08:24:31.186Z,94.20
2018-03-21T08:25:34.531Z,94.20
2018-03-21T08:26:37.786Z,93.80
2018-03-21T08:27:42.229Z,94.10
2018-03-21T08:28:45.509Z,94.10
2018-03-21T08:29:48.804Z,93.90
2018-03-21T08:30:52.520Z,93.60
2018-03-21T08:31:55.773Z,93.40
2018-03-21T08:32:59.021Z,93.40
2018-03-21T08:34:03.501Z,93.80
2018-03-21T08:35:06.850Z,93.90
2018-03-21T08:36:10.090Z,94.30
2018-03-21T08:37:13.306Z,94.40
2018-03-21T08:38:17.267Z,94.60
2018-03-21T08:39:20.498Z,94.60
2018-03-21T08:40:24.474Z,94.40
2018-03-21T08:41:27.703Z,94.40
2018-03-21T08:42:30.936Z,94.10
2018-03-21T08:43:34.950Z,94.00
2018-03-21T08:44:38.949Z,94.30
2018-03-21T08:45:42.192Z,94.30
2018-03-21T08:46:45.504Z,94.60
2018-03-21T08:47:48.720Z,94.70
2018-03-21T08:48:51.952Z,94.50
2018-03-21T08:49:55.184Z,94.80
2018-03-21T08:50:58.438Z,94.60
2018-03-21T08:52:01.682Z,94.00
2018-03-21T08:53:04.895Z,94.40
2018-03-21T08:54:08.126Z,94.40
2018-03-21T08:55:11.326Z,94.70
2018-03-21T08:56:14.581Z,94.30
2018-03-21T08:57:17.777Z,93.90
2018-03-21T08:58:20.992Z,94.10
2018-03-21T08:59:24.223Z,94.00
2018-03-21T09:00:28.190Z,93.80
2018-03-21T09:01:31.408Z,93.70
2018-03-21T09:02:34.674Z,93.80
2018-03-21T09:03:38.686Z,94.30
2018-03-21T09:04:41.925Z,94.10
2018-03-21T09:05:45.110Z,94.50
2018-03-21T09:06:48.438Z,94.20
2018-03-21T09:07:51.659Z,93.80
2018-03-21T09:08:55.635Z,93.80
2018-03-21T09:09:58.877Z,94.00
2018-03-21T09:11:02.866Z,94.20
2018-03-21T09:12:06.095Z,93.90
2018-03-21T09:13:10.086Z,93.60
2018-03-21T09:14:13.313Z,93.60
2018-03-21T09:15:16.570Z,93.90
2018-03-21T09:16:19.793Z,93.90
2018-03-21T09:17:23.020Z,94.00
2018-03-21T09:18:26.247Z,94.20
2018-03-21T09:19:29.465Z,94.30
2018-03-21T09:20:33.508Z,94.30
2018-03-21T09:21:36.689Z,94.30
2018-03-21T09:22:43.042Z,94.80
2018-03-21T09:23:46.566Z,94.80
2018-03-21T09:24:51.213Z,95.20
2018-03-21T09:25:55.697Z,94.90
2018-03-21T09:26:58.930Z,94.90
2018-03-21T09:28:02.152Z,94.70
2018-03-21T09:29:06.940Z,94.70
2018-03-21T09:30:10.177Z,94.70
2018-03-21T09:31:14.163Z,94.10
2018-03-21T09:32:18.585Z,94.10
2018-03-21T09:33:22.072Z,94.20
2018-03-21T09:34:25.866Z,94.20
2018-03-21T09:35:29.094Z,94.40
2018-03-21T09:36:32.434Z,94.20
2018-03-21T09:37:37.473Z,93.80
2018-03-21T09:38:40.696Z,93.80
2018-03-21T09:39:43.909Z,93.30
2018-03-21T09:40:47.156Z,92.50
2018-03-21T09:41:50.396Z,92.40
2018-03-21T09:42:53.641Z,92.10
2018-03-21T09:43:58.475Z,92.00
2018-03-21T09:45:01.678Z,92.30
2018-03-21T09:46:04.908Z,92.60
2018-03-21T09:47:08.676Z,92.70
2018-03-21T09:48:17.264Z,92.60
2018-03-21T09:49:20.497Z,92.50
2018-03-21T09:50:25.199Z,92.50
2018-03-21T09:51:29.565Z,92.50
2018-03-21T09:52:32.847Z,92.60
2018-03-21T09:53:36.041Z,92.50
2018-03-21T09:54:44.133Z,92.40
2018-03-21T09:55:47.375Z,91.90
2018-03-21T09:56:50.583Z,91.90
2018-03-21T09:57:53.809Z,91.80
2018-03-21T09:58:57.849Z,91.60
2018-03-21T10:00:01.067Z,91.60
2018-03-21T10:01:05.672Z,91.50
2018-03-21T10:02:09.179Z,91.50
2018-03-21T10:03:14.213Z,91.10
2018-03-21T10:04:18.677Z,90.80
2018-03-21T10:05:21.910Z,90.80
2018-03-21T10:06:25.902Z,91.40
2018-03-21T10:07:29.889Z,92.00
2018-03-21T10:08:33.112Z,91.90
2018-03-21T10:09:36.335Z,91.40
2018-03-21T10:10:39.570Z,91.10
2018-03-21T10:11:42.840Z,90.90
2018-03-21T10:12:47.437Z,91.20
2018-03-21T10:13:50.672Z,91.20
2018-03-21T10:14:53.910Z,91.10
2018-03-21T10:15:58.663Z,90.60
2018-03-21T10:17:03.589Z,90.50
2018-03-21T10:18:10.387Z,90.50
2018-03-21T10:19:13.731Z,90.60
2018-03-21T10:20:16.985Z,90.30
2018-03-21T10:21:20.245Z,90.30
2018-03-21T10:22:23.579Z,90.50
2018-03-21T10:23:26.802Z,90.30
2018-03-21T10:24:30.090Z,90.30
2018-03-21T10:25:34.085Z,90.60
2018-03-21T10:26:38.073Z,90.80
2018-03-21T10:27:42.155Z,90.60
2018-03-21T10:28:45.371Z,90.30
2018-03-21T10:29:49.373Z,90.00
2018-03-21T10:30:53.373Z,89.70
2018-03-21T10:31:57.336Z,90.00
2018-03-21T10:33:01.376Z,90.00
2018-03-21T10:34:05.382Z,89.40
2018-03-21T10:35:09.405Z,88.60
2018-03-21T10:36:12.620Z,88.70
2018-03-21T10:37:15.894Z,89.00
2018-03-21T10:38:19.195Z,88.30
2018-03-21T10:39:22.420Z,88.50
2018-03-21T10:40:25.680Z,88.00
2018-03-21T10:41:29.736Z,85.10
2018-03-21T10:42:32.958Z,85.00
2018-03-21T10:43:36.356Z,84.70
2018-03-21T10:44:40.356Z,86.70
2018-03-21T10:45:44.359Z,87.80
2018-03-21T10:46:48.359Z,87.00
2018-03-21T10:47:52.348Z,86.90
2018-03-21T10:48:55.664Z,86.90
2018-03-21T10:49:58.874Z,86.70
2018-03-21T10:51:02.095Z,86.50
2018-03-21T10:52:05.372Z,86.90
2018-03-21T10:53:08.638Z,87.40
2018-03-21T10:54:11.911Z,86.40
2018-03-21T10:55:15.120Z,86.50
2018-03-21T10:56:18.480Z,86.50
2018-03-21T10:57:21.722Z,86.40
2018-03-21T10:58:25.697Z,87.20
2018-03-21T10:59:28.987Z,87.20
2018-03-21T11:00:32.243Z,86.60
2018-03-21T11:01:35.460Z,85.10
2018-03-21T11:02:45.196Z,84.70
2018-03-21T11:03:54.817Z,84.10
2018-03-21T11:04:58.033Z,84.00
2018-03-21T11:06:01.246Z,82.60
2018-03-21T11:07:04.491Z,82.10
2018-03-21T11:08:07.755Z,83.00
2018-03-21T11:09:11.803Z,83.30
2018-03-21T11:10:15.037Z,83.30
2018-03-21T11:11:19.036Z,85.50
2018-03-21T11:12:22.263Z,85.40
2018-03-21T11:13:25.511Z,85.50
2018-03-21T11:14:29.509Z,85.80
2018-03-21T11:15:32.966Z,85.80
2018-03-21T11:16:36.164Z,86.20
2018-03-21T11:17:39.379Z,86.80
2018-03-21T11:18:42.647Z,86.10
2018-03-21T11:19:46.042Z,84.30
2018-03-21T11:20:50.064Z,83.10
2018-03-21T11:21:53.315Z,83.10
2018-03-21T11:22:56.531Z,84.20
2018-03-21T11:23:59.765Z,84.20
2018-03-21T11:25:02.998Z,84.00
2018-03-21T11:26:06.787Z,83.90
2018-03-21T11:27:10.203Z,84.10
2018-03-21T11:28:14.344Z,84.30
2018-03-21T11:29:18.350Z,85.20
2018-03-21T11:30:22.335Z,84.60
2018-03-21T11:31:25.650Z,84.60
2018-03-21T11:32:29.648Z,84.70
2018-03-21T11:33:33.620Z,84.80
2018-03-21T11:34:38.383Z,84.20
2018-03-21T11:35:41.585Z,84.10
2018-03-21T11:36:44.817Z,84.40
2018-03-21T11:37:48.808Z,85.10
2018-03-21T11:38:52.043Z,85.00
2018-03-21T11:39:55.269Z,84.80
2018-03-21T11:40:58.497Z,84.70
2018-03-21T11:42:01.836Z,84.60
2018-03-21T11:43:05.020Z,84.10
2018-03-21T11:44:08.286Z,83.70
2018-03-21T11:45:11.500Z,84.20
2018-03-21T11:46:15.502Z,84.20
2018-03-21T11:47:19.497Z,83.20
2018-03-21T11:48:22.840Z,83.10
2018-03-21T11:49:26.070Z,83.00
2018-03-21T11:50:30.054Z,83.70
2018-03-21T11:51:34.060Z,83.90
2018-03-21T11:52:37.299Z,83.90
2018-03-21T11:53:40.532Z,84.10
2018-03-21T11:54:46.588Z,84.00
2018-03-21T11:55:49.810Z,83.60
2018-03-21T11:56:53.052Z,83.50
2018-03-21T11:57:57.052Z,84.60
2018-03-21T11:59:01.032Z,84.20
2018-03-21T12:00:04.437Z,84.20
2018-03-21T12:01:07.642Z,84.30
2018-03-21T12:02:11.697Z,84.30
2018-03-21T12:03:14.896Z,84.10
2018-03-21T12:04:18.125Z,85.10
2018-03-21T12:05:22.417Z,84.90
2018-03-21T12:06:26.695Z,83.90
2018-03-21T12:07:30.704Z,83.80
2018-03-21T12:08:34.753Z,83.40
2018-03-21T12:09:37.941Z,83.30
2018-03-21T12:10:41.235Z,84.00
2018-03-21T12:11:44.464Z,84.80
2018-03-21T12:12:48.519Z,83.40
2018-03-21T12:13:51.727Z,83.40
2018-03-21T12:14:55.000Z,83.40
2018-03-21T12:15:58.208Z,83.50
2018-03-21T12:17:02.359Z,85.00
2018-03-21T12:18:05.585Z,85.00
2018-03-21T12:19:09.576Z,86.20
2018-03-21T12:20:12.802Z,86.20
2018-03-21T12:21:16.101Z,87.00
2018-03-21T12:22:19.302Z,87.20
2018-03-21T12:23:22.512Z,87.30
2018-03-21T12:24:26.522Z,87.00
2018-03-21T12:25:30.561Z,86.10
2018-03-21T12:26:33.805Z,86.00
2018-03-21T12:27:37.789Z,83.60
2018-03-21T12:28:41.124Z,83.60
2018-03-21T12:29:44.369Z,83.90
2018-03-21T12:30:47.615Z,84.80
2018-03-21T12:31:50.874Z,85.70
2018-03-21T12:32:54.260Z,84.70
2018-03-21T12:33:57.412Z,83.40
2018-03-21T12:35:01.391Z,81.10
2018-03-21T12:36:04.638Z,80.80
2018-03-21T12:37:07.865Z,80.50
2018-03-21T12:38:11.163Z,78.30
2018-03-21T12:39:17.154Z,76.70
2018-03-21T12:40:20.376Z,77.10
2018-03-21T12:41:24.384Z,77.80
2018-03-21T12:42:27.593Z,77.80
2018-03-21T12:43:30.809Z,78.10
2018-03-21T12:44:34.154Z,77.70
2018-03-21T12:45:37.292Z,78.80
2018-03-21T12:46:40.526Z,77.70
2018-03-21T12:47:44.125Z,77.00
2018-03-21T12:48:47.552Z,72.90
2018-03-21T12:49:50.815Z,73.80
2018-03-21T12:50:54.162Z,74.70
2018-03-21T12:51:57.370Z,73.90
2018-03-21T12:53:00.574Z,74.60
2018-03-21T12:54:04.963Z,75.00
2018-03-21T12:55:08.949Z,75.00
2018-03-21T12:56:12.195Z,75.00
2018-03-21T12:57:15.398Z,76.00
2018-03-21T12:58:19.462Z,72.20
2018-03-21T12:59:22.648Z,72.20
2018-03-21T13:00:26.472Z,73.20
2018-03-21T13:01:29.739Z,73.60
2018-03-21T13:02:32.939Z,74.50
2018-03-21T13:03:36.967Z,76.20
2018-03-21T13:04:40.272Z,75.60
2018-03-21T13:05:43.515Z,76.80
2018-03-21T13:06:47.507Z,75.90
2018-03-21T13:07:50.745Z,75.70
2018-03-21T13:08:53.972Z,75.40
2018-03-21T13:09:57.187Z,75.40
2018-03-21T13:11:00.410Z,74.10
2018-03-21T13:12:03.642Z,74.20
2018-03-21T13:13:06.876Z,74.60
2018-03-21T13:14:10.098Z,72.50
2018-03-21T13:15:14.059Z,71.30
2018-03-21T13:16:17.309Z,71.10
2018-03-21T13:17:20.558Z,70.80
2018-03-21T13:18:23.800Z,70.00
2018-03-21T13:19:27.015Z,71.00
2018-03-21T13:20:30.332Z,72.80
2018-03-21T13:21:33.546Z,73.50
2018-03-21T13:22:36.758Z,73.30
2018-03-21T13:23:39.984Z,74.50
2018-03-21T13:24:43.206Z,75.20
2018-03-21T13:25:46.465Z,75.40
2018-03-21T13:26:49.712Z,74.60
2018-03-21T13:27:53.338Z,72.90
2018-03-21T13:28:56.576Z,73.50
2018-03-21T13:30:00.857Z,71.60
2018-03-21T13:31:04.078Z,71.60
2018-03-21T13:32:08.058Z,72.90
2018-03-21T13:33:12.079Z,73.40
2018-03-21T13:34:16.077Z,71.40
2018-03-21T13:35:20.146Z,70.60
2018-03-21T13:36:24.168Z,70.10
2018-03-21T13:37:28.165Z,68.50
2018-03-21T13:38:32.172Z,65.70
2018-03-21T13:39:35.588Z,65.60